createdAt,value
2018-11-22T01:23:05.709Z,30.47
2018-11-22T01:25:34.009Z,29.70
2018-11-22T01:28:02.184Z,29.57
2018-11-22T01:30:30.430Z,29.77
2018-11-22T01:32:58.757Z,30.43
2018-11-22T01:35:27.230Z,30.47
2018-11-22T01:37:55.443Z,29.23
2018-11-22T01:40:24.797Z,29.63
2018-11-22T01:42:53.083Z,28.63
2018-11-22T01:45:22.832Z,29.70
2018-11-22T01:47:51.043Z,28.93
2018-11-22T01:50:19.540Z,29.43
2018-11-22T01:52:47.770Z,29.70
2018-11-22T01:55:17.462Z,28.77
2018-11-22T01:57:46.511Z,29.10
2018-11-22T02:00:16.686Z,27.10
2018-11-22T02:02:44.899Z,27.33
2018-11-22T02:05:14.333Z,28.27
2018-11-22T02:07:42.542Z,28.33
2018-11-22T02:10:14.700Z,27.63
2018-11-22T02:12:42.867Z,28.37
2018-11-22T02:15:13.179Z,28.90
2018-11-22T02:17:41.414Z,29.00
2018-11-22T02:20:14.422Z,28.37
2018-11-22T02:22:43.288Z,27.67
2018-11-22T02:25:12.719Z,27.07
2018-11-22T02:27:41.012Z,29.27
2018-11-22T02:30:10.374Z,28.30
2018-11-22T02:32:38.883Z,28.53
2018-11-22T02:35:07.555Z,27.17
2018-11-22T02:37:35.813Z,28.03
2018-11-22T02:40:03.941Z,27.90
2018-11-22T02:42:32.221Z,26.30
2018-11-22T02:45:00.505Z,26.87
2018-11-22T02:47:28.710Z,27.67
2018-11-22T02:49:57.077Z,27.53
2018-11-22T02:52:25.361Z,27.67
2018-11-22T02:55:12.970Z,26.37
2018-11-22T12:17:32.086Z,30.57
2018-11-22T12:20:00.385Z,31.23
2018-11-22T12:22:28.655Z,30.97
2018-11-22T12:24:56.928Z,30.80
2018-11-22T12:27:25.218Z,32.20
2018-11-22T12:29:53.522Z,30.00
2018-11-22T12:32:27.320Z,29.23
2018-11-22T12:35:00.694Z,30.37
2018-11-22T12:37:32.616Z,30.80
2018-11-22T12:40:01.361Z,32.97
2018-11-22T12:42:29.811Z,29.87
2018-11-22T12:45:03.380Z,29.20
2018-11-22T12:47:32.851Z,30.37
2018-11-22T12:50:01.875Z,31.97
2018-11-22T12:52:30.156Z,31.20
2018-11-22T12:54:58.580Z,30.43
2018-11-22T12:57:27.170Z,29.77
2018-11-22T12:59:55.770Z,30.17
2018-11-22T13:02:24.044Z,31.00
2018-11-22T13:04:52.736Z,31.17
2018-11-22T13:07:21.040Z,30.67
2018-11-22T13:09:49.308Z,30.47
2018-11-22T13:12:17.564Z,31.87
2018-11-22T13:14:46.030Z,30.07
2018-11-22T13:17:14.344Z,31.03
2018-11-22T13:19:42.640Z,29.17
2018-11-22T13:22:10.990Z,31.17
2018-11-22T13:24:39.476Z,30.63
2018-11-22T13:27:07.756Z,30.60
2018-11-22T13:29:36.619Z,31.43
2018-11-22T13:32:05.103Z,30.97
2018-11-22T13:34:33.452Z,32.57
2018-11-22T13:37:01.721Z,30.37
2018-11-22T13:39:29.999Z,31.40
2018-11-22T13:41:59.985Z,31.57
2018-11-22T13:44:28.316Z,31.93
2018-11-22T13:46:56.624Z,31.23
2018-11-22T13:49:25.075Z,33.30
2018-11-22T13:51:53.430Z,31.03
2018-11-22T13:54:21.781Z,30.90
2018-11-22T13:56:50.083Z,31.33
2018-11-22T13:59:18.359Z,32.43
2018-11-22T14:01:46.615Z,32.97
2018-11-22T14:04:14.943Z,33.73
2018-11-22T14:06:43.210Z,31.63
2018-11-22T14:09:11.776Z,34.63
2018-11-22T14:11:40.096Z,32.80
2018-11-22T14:14:08.383Z,31.33
2018-11-22T14:16:36.707Z,32.40
2018-11-22T14:19:05.053Z,31.47
2018-11-22T14:21:33.343Z,31.47
2018-11-22T14:24:01.604Z,31.43
2018-11-22T14:26:29.871Z,30.17
2018-11-22T14:28:58.122Z,37.78
2018-11-22T14:31:27.235Z,32.37
2018-11-22T14:33:55.849Z,30.57
2018-11-22T14:36:24.130Z,32.47
2018-11-22T14:38:52.408Z,32.23
2018-11-22T14:41:22.355Z,32.90
2018-11-22T14:43:50.709Z,31.60
2018-11-22T14:46:19.179Z,31.50
2018-11-22T14:48:48.164Z,32.67
2018-11-22T14:51:18.091Z,31.30
2018-11-22T14:53:46.359Z,33.07
2018-11-22T14:56:14.679Z,31.37
2018-11-22T14:58:42.963Z,31.80
2018-11-22T15:01:11.235Z,31.27
2018-11-22T15:03:40.615Z,32.10
2018-11-22T15:06:08.914Z,32.00
2018-11-22T15:08:37.216Z,32.17
2018-11-22T15:11:05.551Z,38.58
2018-11-22T15:13:33.832Z,34.23
2018-11-22T15:16:02.099Z,33.43
2018-11-22T15:18:30.416Z,33.23
2018-11-22T15:21:01.211Z,32.33
2018-11-22T15:23:27.161Z,32.57
2018-11-22T15:25:55.526Z,32.57
2018-11-22T15:28:23.915Z,33.00
2018-11-22T15:30:52.207Z,31.53
2018-11-22T15:33:20.601Z,32.77
2018-11-22T15:35:48.879Z,31.97
2018-11-22T15:38:17.253Z,34.80
2018-11-22T15:40:45.589Z,33.63
2018-11-22T15:43:13.880Z,32.53
2018-11-22T15:45:42.243Z,32.53
2018-11-22T15:48:10.603Z,32.63
2018-11-22T15:50:38.948Z,33.30
2018-11-22T15:53:08.681Z,41.02
2018-11-22T15:55:36.947Z,34.27
2018-11-22T15:58:05.407Z,36.75
2018-11-22T16:00:35.291Z,33.30
2018-11-22T16:03:04.196Z,32.07
2018-11-22T16:05:33.003Z,31.50
2018-11-22T16:08:01.284Z,32.90
2018-11-22T16:10:31.131Z,32.73
2018-11-22T16:13:00.670Z,32.37
2018-11-22T16:15:30.822Z,31.93
2018-11-22T16:17:59.115Z,31.87
2018-11-22T16:20:27.995Z,31.30
2018-11-22T16:22:58.684Z,32.63
2018-11-22T16:25:27.020Z,33.10
2018-11-22T16:27:55.345Z,31.93
2018-11-22T16:30:24.860Z,30.30
2018-11-22T16:32:53.606Z,32.30
2018-11-22T16:35:22.832Z,31.70
2018-11-22T16:37:51.109Z,33.23
2018-11-22T16:40:20.719Z,30.33
2018-11-22T16:42:50.428Z,30.57
2018-11-22T16:45:23.026Z,33.37
2018-11-22T16:47:51.388Z,38.13
2018-11-22T16:50:20.935Z,33.30
2018-11-22T16:52:49.214Z,32.47
2018-11-22T16:55:17.966Z,32.07
2018-11-22T16:57:47.430Z,33.13
2018-11-22T17:00:19.479Z,30.77
2018-11-22T17:02:48.946Z,31.73
2018-11-22T17:05:17.566Z,37.98
2018-11-22T17:07:46.832Z,34.80
2018-11-22T17:10:16.563Z,31.70
2018-11-22T17:12:45.544Z,32.17
2018-11-22T17:15:15.124Z,32.63
2018-11-22T17:17:43.847Z,32.17
2018-11-22T17:20:13.394Z,33.27
2018-11-22T17:22:42.261Z,33.63
2018-11-22T17:25:12.528Z,31.07
2018-11-22T17:27:41.521Z,32.93
2018-11-22T17:30:11.513Z,35.92
2018-11-22T17:32:40.053Z,34.13
2018-11-22T17:35:08.746Z,33.10
2018-11-22T17:37:37.729Z,33.10
2018-11-22T17:40:09.095Z,32.67
2018-11-22T17:42:37.728Z,32.67
2018-11-22T17:45:07.447Z,32.40
2018-11-22T17:47:35.766Z,33.03
2018-11-22T17:50:04.211Z,36.77
2018-11-22T17:52:32.544Z,31.93
2018-11-22T17:55:00.891Z,33.17
2018-11-22T17:57:29.167Z,33.50
2018-11-22T17:59:58.747Z,33.20
2018-11-22T18:02:27.119Z,32.03
2018-11-22T18:04:55.505Z,33.13
2018-11-22T18:07:23.807Z,33.00
2018-11-22T18:09:52.061Z,33.30
2018-11-22T18:12:20.355Z,33.40
2018-11-22T18:14:48.715Z,33.13
2018-11-22T18:17:17.059Z,34.20
2018-11-22T18:19:45.362Z,32.33
2018-11-22T18:22:13.675Z,33.30
2018-11-22T18:24:41.983Z,33.47
2018-11-22T18:27:10.847Z,35.40
2018-11-22T18:29:39.209Z,33.23
2018-11-22T18:32:07.725Z,33.23
2018-11-22T18:34:36.146Z,35.20
2018-11-22T18:37:04.394Z,34.67
2018-11-22T18:39:32.713Z,35.50
2018-11-22T18:42:00.994Z,32.03
2018-11-22T18:44:29.348Z,35.20
2018-11-22T18:46:57.667Z,32.00
2018-11-22T18:49:26.047Z,32.87
2018-11-22T18:51:54.585Z,31.50
2018-11-22T18:54:22.868Z,33.60
2018-11-22T18:56:51.199Z,31.67
2018-11-22T18:59:19.552Z,31.77
2018-11-22T19:01:47.804Z,32.53
2018-11-22T19:04:16.276Z,33.17
2018-11-22T19:06:44.631Z,30.97
2018-11-22T19:09:12.997Z,31.10
2018-11-22T19:11:41.304Z,32.13
2018-11-22T19:14:09.659Z,31.40
2018-11-22T19:16:37.995Z,30.93
2018-11-22T19:19:06.280Z,31.87
2018-11-22T19:21:34.639Z,30.13
2018-11-22T19:24:02.905Z,30.33
2018-11-22T19:26:31.221Z,31.10
2018-11-22T19:28:59.591Z,28.87
2018-11-22T19:31:27.966Z,30.17
2018-11-22T19:33:56.354Z,29.90
2018-11-22T19:36:24.938Z,29.93
2018-11-22T19:38:53.244Z,30.17
2018-11-22T19:41:21.652Z,30.17
2018-11-22T19:43:50.016Z,29.40
2018-11-22T19:46:18.483Z,29.30
2018-11-22T19:48:46.820Z,30.10
2018-11-22T19:51:15.119Z,29.63
2018-11-22T19:53:43.447Z,30.13
2018-11-22T19:56:11.845Z,31.17
2018-11-22T19:58:40.159Z,31.20
2018-11-22T20:01:08.404Z,30.37
2018-11-22T20:03:36.714Z,31.53
2018-11-22T20:06:05.155Z,28.97
2018-11-22T20:08:33.407Z,30.23
2018-11-22T20:11:01.678Z,29.27
2018-11-22T20:13:29.985Z,29.00
2018-11-22T20:15:58.364Z,29.17
2018-11-22T20:18:26.719Z,28.53
2018-11-22T20:20:55.565Z,29.10
2018-11-22T20:23:23.863Z,29.50
2018-11-22T20:25:52.156Z,28.20
2018-11-22T20:28:20.419Z,29.30
2018-11-22T20:30:49.094Z,28.30
2018-11-22T20:33:17.371Z,28.50
2018-11-22T20:35:45.913Z,28.40
2018-11-22T20:38:14.215Z,27.77
2018-11-22T20:40:42.557Z,27.43
2018-11-22T20:43:10.875Z,27.97
2018-11-22T20:45:40.888Z,28.20
2018-11-22T20:48:08.060Z,27.63
2018-11-22T20:50:36.843Z,28.97
2018-11-22T20:53:05.283Z,29.43
2018-11-22T20:55:35.096Z,27.93
2018-11-22T20:58:05.132Z,27.67
2018-11-22T21:00:34.936Z,26.43
2018-11-22T21:03:04.008Z,27.80
2018-11-22T21:05:32.395Z,26.83
2018-11-22T21:08:00.903Z,27.23
2018-11-22T21:10:31.092Z,26.37
2018-11-22T21:12:59.411Z,27.17
2018-11-22T21:15:29.127Z,26.93
2018-11-22T21:18:02.931Z,26.03
2018-11-22T21:20:33.658Z,26.83
2018-11-22T21:23:01.940Z,26.10
2018-11-22T21:25:30.209Z,27.20
2018-11-22T21:27:58.482Z,28.10
2018-11-22T21:30:34.948Z,25.23
2018-11-22T21:33:03.464Z,26.20
2018-11-22T21:35:32.352Z,25.13
2018-11-22T21:38:01.487Z,25.23
2018-11-22T21:40:30.440Z,24.63
2018-11-22T21:42:58.751Z,23.93
2018-11-22T21:45:27.488Z,24.00
2018-11-22T21:47:55.763Z,24.20
2018-11-22T21:50:25.195Z,24.60
2018-11-22T21:52:54.048Z,25.37
2018-11-22T21:55:24.360Z,25.03
2018-11-22T21:57:53.675Z,24.17
2018-11-22T22:00:23.925Z,24.40
2018-11-22T22:02:53.959Z,23.30
2018-11-22T22:05:22.255Z,22.97
2018-11-22T22:07:50.499Z,25.03
2018-11-22T22:10:18.840Z,24.63
2018-11-22T22:12:47.188Z,24.83
2018-11-22T22:15:16.771Z,23.47
2018-11-22T22:17:45.733Z,23.17
2018-11-22T22:20:15.458Z,23.77
2018-11-22T22:22:43.962Z,22.73
2018-11-22T22:25:14.937Z,22.60
2018-11-22T22:27:43.578Z,23.20
2018-11-22T22:30:13.770Z,23.27
2018-11-22T22:32:42.693Z,23.80
2018-11-22T22:35:11.011Z,22.63
2018-11-22T22:37:39.487Z,21.93
2018-11-22T22:40:09.019Z,23.27
2018-11-22T22:42:37.316Z,22.33
2018-11-22T22:45:05.656Z,22.57
2018-11-22T22:47:33.943Z,22.50
2018-11-22T22:50:02.242Z,22.93
2018-11-22T22:52:30.536Z,23.60
2018-11-22T22:54:58.801Z,22.73
2018-11-22T22:57:27.054Z,22.47
2018-11-22T22:59:55.371Z,22.23
2018-11-22T23:02:23.643Z,22.50
2018-11-22T23:04:51.918Z,22.20
2018-11-22T23:07:20.193Z,22.53
2018-11-22T23:09:48.486Z,22.07
2018-11-22T23:12:16.792Z,22.87
2018-11-22T23:14:45.127Z,23.83
2018-11-22T23:17:13.375Z,22.53
2018-11-22T23:19:41.657Z,22.60
2018-11-22T23:22:10.043Z,21.90
2018-11-22T23:24:38.387Z,23.13
2018-11-22T23:27:06.643Z,22.47
2018-11-22T23:29:34.907Z,21.30
2018-11-22T23:32:03.169Z,23.40
2018-11-22T23:34:31.412Z,22.87
2018-11-22T23:36:59.759Z,22.73
2018-11-22T23:39:28.043Z,22.57
2018-11-22T23:41:56.351Z,23.43
2018-11-22T23:44:24.656Z,21.70
2018-11-22T23:46:52.895Z,22.80
2018-11-22T23:49:21.244Z,21.57
2018-11-22T23:51:49.502Z,22.33
2018-11-22T23:54:17.795Z,21.87
2018-11-22T23:56:46.134Z,22.73
2018-11-22T23:59:14.411Z,21.93
